createdAt,value
2023-05-22T00:01:46.707Z,101305.09
2023-05-22T00:04:21.100Z,101306.84
2023-05-22T00:06:50.504Z,101293.09
2023-05-22T00:09:18.291Z,101299.94
2023-05-22T00:11:46.081Z,101296.03
2023-05-22T00:14:14.392Z,101290.31
2023-05-22T00:16:42.168Z,101289.34
2023-05-22T00:19:13.275Z,101291.94
2023-05-22T00:21:41.383Z,101295.25
2023-05-22T00:24:10.682Z,101291.09
2023-05-22T00:26:38.449Z,101289.75
2023-05-22T00:29:06.654Z,101292.47
2023-05-22T00:31:34.418Z,101298.38
2023-05-22T00:34:02.329Z,101303.22
2023-05-22T00:36:30.297Z,101291.94
2023-05-22T00:38:58.051Z,101302.47
2023-05-22T00:41:27.251Z,101296.28
2023-05-22T00:43:55.184Z,101299.31
2023-05-22T00:46:24.513Z,101293.34
2023-05-22T00:48:53.104Z,101290.38
2023-05-22T00:51:22.416Z,101293.13
2023-05-22T00:53:50.759Z,101291.47
2023-05-22T00:56:19.716Z,101283.09
2023-05-22T00:58:49.237Z,101285.16
2023-05-22T01:01:17.691Z,101284.66
2023-05-22T01:03:45.879Z,101286.50
2023-05-22T01:06:14.409Z,101294.13
2023-05-22T01:08:42.937Z,101289.00
2023-05-22T01:11:16.436Z,101290.31
2023-05-22T01:13:54.884Z,101286.31
2023-05-22T01:16:30.278Z,101292.16
2023-05-22T01:19:04.140Z,101291.03
2023-05-22T01:21:38.274Z,101285.91
2023-05-22T01:24:45.660Z,101294.81
2023-05-22T01:27:49.354Z,101299.25
2023-05-22T01:30:30.480Z,101299.19
2023-05-22T01:33:00.658Z,101292.63
2023-05-22T01:35:29.631Z,101291.69
2023-05-22T01:37:59.425Z,101296.97
2023-05-22T01:40:28.350Z,101301.28
2023-05-22T01:42:56.446Z,101295.44
2023-05-22T01:45:24.167Z,101303.34
2023-05-22T01:47:52.120Z,101303.94
2023-05-22T01:50:21.588Z,101298.91
2023-05-22T01:53:00.249Z,101304.75
2023-05-22T01:55:35.114Z,101302.41
2023-05-22T01:58:13.621Z,101305.25
2023-05-22T02:00:44.363Z,101297.84
2023-05-22T02:03:20.254Z,101295.28
2023-05-22T02:05:55.559Z,101296.00
2023-05-22T02:08:25.015Z,101285.16
2023-05-22T02:10:56.030Z,101293.41
2023-05-22T02:13:24.546Z,101295.22
2023-05-22T02:15:53.138Z,101289.09
2023-05-22T02:18:22.326Z,101287.03
2023-05-22T02:20:51.543Z,101278.16
2023-05-22T02:23:19.336Z,101283.75
2023-05-22T02:25:47.047Z,101285.63
2023-05-22T02:28:14.801Z,101287.59
2023-05-22T02:30:42.529Z,101280.84
2023-05-22T02:33:11.489Z,101274.66
2023-05-22T02:35:39.257Z,101277.84
2023-05-22T02:38:08.358Z,101282.47
2023-05-22T02:40:36.099Z,101266.81
2023-05-22T02:43:03.906Z,101275.78
2023-05-22T02:45:33.502Z,101270.41
2023-05-22T02:48:03.386Z,101280.03
2023-05-22T02:50:31.310Z,101277.06
2023-05-22T02:52:59.069Z,101276.31
2023-05-22T02:55:28.234Z,101272.78
2023-05-22T02:57:55.988Z,101279.75
2023-05-22T03:00:23.766Z,101275.16
2023-05-22T03:02:51.567Z,101282.31
2023-05-22T03:05:19.632Z,101281.63
2023-05-22T03:07:49.106Z,101281.28
2023-05-22T03:10:17.050Z,101282.16
2023-05-22T03:12:46.143Z,101283.31
2023-05-22T03:15:13.920Z,101287.72
2023-05-22T03:17:41.705Z,101285.06
2023-05-22T03:20:10.449Z,101281.94
2023-05-22T03:22:38.263Z,101278.88
2023-05-22T03:25:09.368Z,101283.81
2023-05-22T03:27:37.146Z,101286.09
2023-05-22T03:30:08.077Z,101281.59
2023-05-22T03:32:37.635Z,101290.91
2023-05-22T03:35:06.547Z,101285.41
2023-05-22T03:37:34.424Z,101283.16
2023-05-22T03:40:02.270Z,101272.84
2023-05-22T03:42:29.984Z,101280.50
2023-05-22T03:44:57.724Z,101283.91
2023-05-22T03:47:26.943Z,101280.56
2023-05-22T03:49:54.703Z,101277.69
2023-05-22T03:52:23.182Z,101287.41
2023-05-22T03:54:51.091Z,101288.13
2023-05-22T03:57:19.965Z,101281.00
2023-05-22T03:59:47.773Z,101289.09
2023-05-22T04:02:16.896Z,101298.56
2023-05-22T04:04:47.057Z,101293.69
2023-05-22T04:07:14.881Z,101285.53
2023-05-22T04:09:42.692Z,101292.00
2023-05-22T04:12:11.014Z,101295.41
2023-05-22T04:14:38.769Z,101295.34
2023-05-22T04:17:06.551Z,101294.69
2023-05-22T04:19:34.347Z,101293.81
2023-05-22T04:22:03.507Z,101296.16
2023-05-22T04:24:31.285Z,101295.72
2023-05-22T04:27:00.359Z,101298.63
2023-05-22T04:29:28.632Z,101296.91
2023-05-22T04:31:56.396Z,101288.47
2023-05-22T04:34:24.506Z,101300.97
2023-05-22T04:36:52.675Z,101293.75
2023-05-22T04:39:22.322Z,101298.53
2023-05-22T04:41:50.541Z,101298.84
2023-05-22T04:44:18.296Z,101304.38
2023-05-22T04:46:46.131Z,101308.88
2023-05-22T04:49:14.211Z,101309.78
2023-05-22T04:51:41.990Z,101317.69
2023-05-22T04:54:09.743Z,101322.13
2023-05-22T04:56:38.911Z,101321.00
2023-05-22T04:59:09.355Z,101326.56
2023-05-22T05:01:37.954Z,101322.84
2023-05-22T05:04:06.113Z,101321.00
2023-05-22T05:06:34.916Z,101324.09
2023-05-22T05:09:02.811Z,101325.25
2023-05-22T05:11:30.559Z,101319.09
2023-05-22T05:13:59.694Z,101330.22
2023-05-22T05:16:27.821Z,101322.84
2023-05-22T05:18:56.642Z,101322.56
2023-05-22T05:21:27.932Z,101328.84
2023-05-22T05:23:55.829Z,101328.31
2023-05-22T05:26:24.086Z,101330.94
2023-05-22T05:28:51.988Z,101330.84
2023-05-22T05:31:21.296Z,101326.91
2023-05-22T05:33:49.124Z,101324.84
2023-05-22T05:36:17.372Z,101327.81
2023-05-22T05:38:45.102Z,101332.78
2023-05-22T05:41:12.939Z,101338.00
2023-05-22T05:43:40.777Z,101331.94
2023-05-22T05:46:08.609Z,101334.72
2023-05-22T05:48:37.747Z,101335.75
2023-05-22T05:51:05.686Z,101332.94
2023-05-22T05:53:33.621Z,101327.63
2023-05-22T05:56:01.367Z,101333.56
2023-05-22T05:58:29.147Z,101329.34
2023-05-22T06:00:57.287Z,101336.13
2023-05-22T06:03:26.018Z,101324.09
2023-05-22T06:05:55.464Z,101323.66
2023-05-22T06:08:23.192Z,101324.00
2023-05-22T06:10:51.118Z,101322.78
2023-05-22T06:13:18.890Z,101327.47
2023-05-22T06:15:46.718Z,101325.94
2023-05-22T06:18:14.504Z,101330.78
2023-05-22T06:20:42.428Z,101325.53
2023-05-22T06:23:11.660Z,101338.63
2023-05-22T06:25:40.157Z,101331.22
2023-05-22T06:28:07.920Z,101336.66
2023-05-22T06:30:39.985Z,101337.63
2023-05-22T06:33:09.097Z,101343.06
2023-05-22T06:35:37.020Z,101351.47
2023-05-22T06:38:04.874Z,101350.88
2023-05-22T06:40:33.995Z,101360.72
2023-05-22T06:43:02.245Z,101361.69
2023-05-22T06:45:30.181Z,101365.56
2023-05-22T06:47:58.097Z,101368.78
2023-05-22T06:50:25.911Z,101380.34
2023-05-22T06:52:53.652Z,101385.34
2023-05-22T06:55:21.432Z,101380.88
2023-05-22T06:57:50.986Z,101379.72
2023-05-22T07:00:21.522Z,101393.25
2023-05-22T07:02:49.692Z,101390.94
2023-05-22T07:05:17.866Z,101399.38
2023-05-22T07:07:45.674Z,101393.47
2023-05-22T07:10:13.554Z,101392.88
2023-05-22T07:12:41.326Z,101384.25
2023-05-22T07:15:13.500Z,101389.78
2023-05-22T07:17:41.930Z,101384.16
2023-05-22T07:20:10.894Z,101381.81
2023-05-22T07:22:38.793Z,101384.31
2023-05-22T07:25:07.576Z,101393.16
2023-05-22T07:27:35.484Z,101390.47
2023-05-22T07:30:03.267Z,101388.03
2023-05-22T07:32:32.421Z,101383.63
2023-05-22T07:35:00.221Z,101385.75
2023-05-22T07:37:28.013Z,101394.31
2023-05-22T07:39:55.871Z,101381.66
2023-05-22T07:42:23.735Z,101387.13
2023-05-22T07:44:51.566Z,101386.72
2023-05-22T07:47:19.442Z,101389.19
2023-05-22T07:49:48.611Z,101393.13
2023-05-22T07:52:16.509Z,101402.19
2023-05-22T07:54:45.306Z,101398.69
2023-05-22T07:57:14.072Z,101398.09
2023-05-22T07:59:43.737Z,101397.13
2023-05-22T08:02:11.496Z,101397.75
2023-05-22T08:04:39.458Z,101396.81
2023-05-22T08:07:08.756Z,101396.00
2023-05-22T08:09:36.582Z,101395.66
2023-05-22T08:12:04.574Z,101387.56
2023-05-22T08:14:35.495Z,101398.63
2023-05-22T08:17:03.515Z,101387.34
2023-05-22T08:19:31.945Z,101377.88
2023-05-22T08:22:00.032Z,101389.47
2023-05-22T08:24:30.606Z,101385.31
2023-05-22T08:27:00.605Z,101389.19
2023-05-22T08:29:29.812Z,101387.53
2023-05-22T08:31:58.247Z,101395.34
2023-05-22T08:34:26.487Z,101391.22
2023-05-22T08:36:54.291Z,101388.59
2023-05-22T08:39:22.057Z,101383.81
2023-05-22T08:41:51.597Z,101387.31
2023-05-22T08:44:19.824Z,101382.88
2023-05-22T08:46:48.591Z,101388.16
2023-05-22T08:49:18.253Z,101392.81
2023-05-22T08:51:49.484Z,101378.50
2023-05-22T08:54:18.541Z,101383.09
2023-05-22T08:56:56.081Z,101381.66
2023-05-22T08:59:26.855Z,101378.66
2023-05-22T09:01:56.631Z,101385.03
2023-05-22T09:04:25.748Z,101376.28
2023-05-22T09:06:55.192Z,101375.97
2023-05-22T09:09:23.131Z,101378.97
2023-05-22T09:11:51.012Z,101373.88
2023-05-22T09:14:19.859Z,101373.72
2023-05-22T09:16:50.538Z,101375.53
2023-05-22T09:19:18.482Z,101388.44
2023-05-22T09:21:46.264Z,101381.66
2023-05-22T09:24:15.441Z,101385.72
2023-05-22T09:26:43.234Z,101383.00
2023-05-22T09:29:11.106Z,101379.69
2023-05-22T09:31:43.834Z,101377.72
2023-05-22T09:34:15.649Z,101374.84
2023-05-22T09:36:43.757Z,101375.28
2023-05-22T09:39:11.705Z,101371.00
2023-05-22T09:41:40.923Z,101375.19
2023-05-22T09:44:13.840Z,101382.50
2023-05-22T09:46:42.667Z,101374.63
2023-05-22T09:49:12.658Z,101365.25
2023-05-22T09:51:47.615Z,101369.31
2023-05-22T09:54:17.445Z,101371.53
2023-05-22T09:56:47.946Z,101367.97
2023-05-22T09:59:20.868Z,101380.75
2023-05-22T10:01:50.916Z,101382.13
2023-05-22T10:04:19.563Z,101374.25
2023-05-22T10:06:52.394Z,101386.31
2023-05-22T10:09:24.844Z,101380.78
2023-05-22T10:11:56.142Z,101371.31
2023-05-22T10:14:24.880Z,101372.50
2023-05-22T10:16:53.299Z,101375.97
2023-05-22T10:19:21.413Z,101362.19
2023-05-22T10:21:51.167Z,101351.75
2023-05-22T10:24:19.194Z,101363.13
2023-05-22T10:26:46.981Z,101366.34
2023-05-22T10:29:25.630Z,101358.91
2023-05-22T10:32:02.103Z,101368.78
2023-05-22T10:34:35.656Z,101368.72
2023-05-22T10:37:21.772Z,101369.16
2023-05-22T10:40:00.930Z,101370.31
2023-05-22T10:42:31.081Z,101376.72
2023-05-22T10:45:01.847Z,101370.69
2023-05-22T10:47:29.764Z,101372.22
2023-05-22T10:50:05.743Z,101370.66
2023-05-22T10:52:35.032Z,101377.94
2023-05-22T10:55:06.747Z,101375.50
2023-05-22T10:57:35.292Z,101367.84
2023-05-22T11:00:11.692Z,101379.44
2023-05-22T11:02:42.075Z,101373.28
2023-05-22T11:05:41.006Z,101374.00
2023-05-22T11:08:36.729Z,101370.31
2023-05-22T11:11:13.374Z,101369.28
2023-05-22T11:13:42.516Z,101368.78
2023-05-22T11:16:11.707Z,101373.53
2023-05-22T11:18:39.834Z,101362.16
2023-05-22T11:21:11.198Z,101358.59
2023-05-22T11:23:40.570Z,101352.41
2023-05-22T11:26:22.507Z,101359.75
2023-05-22T11:28:53.192Z,101366.75
2023-05-22T11:31:23.976Z,101360.00
2023-05-22T11:33:51.843Z,101360.66
2023-05-22T11:36:20.095Z,101359.56
2023-05-22T11:38:49.231Z,101361.94
2023-05-22T11:41:17.146Z,101359.09
2023-05-22T11:43:45.257Z,101354.63
2023-05-22T11:46:14.153Z,101354.50
2023-05-22T11:48:43.036Z,101353.03
2023-05-22T11:51:11.186Z,101356.69
2023-05-22T11:53:38.912Z,101357.47
2023-05-22T11:56:08.709Z,101350.81
2023-05-22T11:58:36.452Z,101349.28
2023-05-22T12:01:05.528Z,101349.38
2023-05-22T12:03:33.904Z,101345.25
2023-05-22T12:06:03.222Z,101351.13
2023-05-22T12:08:31.273Z,101344.31
2023-05-22T12:10:59.100Z,101361.78
2023-05-22T12:13:30.080Z,101356.25
2023-05-22T12:16:01.294Z,101359.47
2023-05-22T12:18:29.440Z,101352.03
2023-05-22T12:20:57.563Z,101347.69
2023-05-22T12:23:26.617Z,101353.63
2023-05-22T12:25:59.086Z,101353.91
2023-05-22T12:28:28.758Z,101349.53
2023-05-22T12:30:57.047Z,101348.75
2023-05-22T12:33:28.889Z,101353.88
2023-05-22T12:35:58.468Z,101345.97
2023-05-22T12:38:27.515Z,101352.31
2023-05-22T12:40:56.458Z,101344.81
2023-05-22T12:43:26.376Z,101350.03
2023-05-22T12:45:55.634Z,101347.81
2023-05-22T12:48:23.991Z,101348.31
2023-05-22T12:50:51.822Z,101345.00
2023-05-22T12:53:19.698Z,101338.56
2023-05-22T12:55:47.490Z,101344.78
2023-05-22T12:58:15.336Z,101346.94
2023-05-22T13:00:43.224Z,101346.16
2023-05-22T13:03:12.612Z,101337.53
2023-05-22T13:05:40.800Z,101339.72
2023-05-22T13:08:08.775Z,101336.91
2023-05-22T13:10:38.101Z,101336.34
2023-05-22T13:13:05.820Z,101337.13
2023-05-22T13:15:33.567Z,101337.91
2023-05-22T13:18:01.407Z,101336.00
2023-05-22T13:20:30.545Z,101332.56
2023-05-22T13:22:58.344Z,101334.94
2023-05-22T13:25:26.065Z,101327.13
2023-05-22T13:27:53.754Z,101333.28
2023-05-22T13:30:21.572Z,101331.69
2023-05-22T13:32:49.471Z,101336.34
2023-05-22T13:35:17.290Z,101329.66
2023-05-22T13:37:46.459Z,101329.38
2023-05-22T13:40:14.590Z,101326.34
2023-05-22T13:42:42.453Z,101332.88
2023-05-22T13:45:11.814Z,101334.53
2023-05-22T13:47:39.722Z,101327.97
2023-05-22T13:50:09.173Z,101331.22
2023-05-22T13:52:37.023Z,101329.81
2023-05-22T13:55:06.985Z,101329.84
2023-05-22T13:57:36.970Z,101323.38
2023-05-22T14:00:05.376Z,101330.25
2023-05-22T14:02:33.235Z,101326.28
2023-05-22T14:05:01.260Z,101320.25
2023-05-22T14:07:29.017Z,101324.38
2023-05-22T14:09:59.025Z,101316.50
2023-05-22T14:12:29.808Z,101316.78
2023-05-22T14:14:57.741Z,101315.38
2023-05-22T14:17:25.586Z,101310.69
2023-05-22T14:19:53.315Z,101310.66
2023-05-22T14:22:21.086Z,101314.50
2023-05-22T14:24:48.844Z,101314.69
2023-05-22T14:27:16.720Z,101319.94
2023-05-22T14:29:45.907Z,101305.72
2023-05-22T14:32:13.627Z,101311.31
2023-05-22T14:34:41.343Z,101304.44
2023-05-22T14:37:09.050Z,101307.44
2023-05-22T14:39:36.765Z,101309.34
2023-05-22T14:42:04.877Z,101309.31
2023-05-22T14:44:32.721Z,101306.69
2023-05-22T14:47:01.974Z,101303.91
2023-05-22T14:49:29.704Z,101303.84
2023-05-22T14:51:57.558Z,101306.31
2023-05-22T14:54:25.283Z,101306.09
2023-05-22T14:56:53.184Z,101305.50
2023-05-22T14:59:21.461Z,101307.19
2023-05-22T15:01:50.463Z,101296.16
2023-05-22T15:04:19.950Z,101299.19
2023-05-22T15:06:47.661Z,101295.03
2023-05-22T15:09:15.419Z,101296.44
2023-05-22T15:11:45.748Z,101304.03
2023-05-22T15:14:13.568Z,101302.31
2023-05-22T15:16:41.768Z,101292.69
2023-05-22T15:19:10.143Z,101305.47
2023-05-22T15:21:42.073Z,101294.91
2023-05-22T15:24:09.925Z,101290.94
2023-05-22T15:26:37.773Z,101289.59
2023-05-22T15:29:05.942Z,101294.16
2023-05-22T15:31:33.769Z,101288.63
2023-05-22T15:34:01.565Z,101284.41
2023-05-22T15:36:30.503Z,101297.84
2023-05-22T15:38:59.606Z,101295.75
2023-05-22T15:41:27.465Z,101298.69
2023-05-22T15:43:55.254Z,101292.00
2023-05-22T15:46:23.050Z,101293.13
2023-05-22T15:48:50.888Z,101299.75
2023-05-22T15:51:18.626Z,101290.97
2023-05-22T15:53:46.348Z,101294.81
2023-05-22T15:56:15.540Z,101298.69
2023-05-22T15:58:43.287Z,101290.34
2023-05-22T16:01:12.184Z,101292.13
2023-05-22T16:03:40.105Z,101285.19
2023-05-22T16:06:08.301Z,101289.28
2023-05-22T16:08:36.051Z,101290.16
2023-05-22T16:11:03.875Z,101294.25
2023-05-22T16:13:33.287Z,101297.66
2023-05-22T16:16:01.723Z,101298.09
2023-05-22T16:18:29.579Z,101299.00
2023-05-22T16:20:57.299Z,101300.53
2023-05-22T16:23:25.079Z,101294.69
2023-05-22T16:25:52.831Z,101299.28
2023-05-22T16:28:20.587Z,101291.66
2023-05-22T16:30:49.749Z,101290.06
2023-05-22T16:33:17.468Z,101282.47
2023-05-22T16:35:46.947Z,101281.75
2023-05-22T16:38:14.849Z,101278.13
2023-05-22T16:40:42.658Z,101275.91
2023-05-22T16:43:10.589Z,101282.97
2023-05-22T16:45:38.562Z,101284.88
2023-05-22T16:48:08.269Z,101289.97
2023-05-22T16:50:36.085Z,101288.09
2023-05-22T16:53:06.702Z,101290.09
2023-05-22T16:55:34.475Z,101286.41
2023-05-22T16:58:02.265Z,101280.09
2023-05-22T17:00:30.176Z,101287.78
2023-05-22T17:02:58.435Z,101286.41
2023-05-22T17:05:27.645Z,101279.53
2023-05-22T17:07:55.476Z,101283.22
2023-05-22T17:10:23.468Z,101276.75
2023-05-22T17:12:51.948Z,101280.59
2023-05-22T17:15:19.716Z,101282.66
2023-05-22T17:17:47.489Z,101283.66
2023-05-22T17:20:15.275Z,101281.38
2023-05-22T17:22:45.106Z,101283.53
2023-05-22T17:25:12.877Z,101281.09
2023-05-22T17:27:40.662Z,101284.34
2023-05-22T17:30:09.414Z,101278.22
2023-05-22T17:32:37.182Z,101279.03
2023-05-22T17:35:06.607Z,101282.97
2023-05-22T17:37:34.764Z,101277.31
2023-05-22T17:40:04.066Z,101283.94
2023-05-22T17:42:31.813Z,101288.09
2023-05-22T17:44:59.557Z,101291.44
2023-05-22T17:47:27.338Z,101287.53
2023-05-22T17:49:55.095Z,101292.72
2023-05-22T17:52:22.963Z,101293.06
2023-05-22T17:54:50.868Z,101298.19
2023-05-22T17:57:20.035Z,101307.75
2023-05-22T17:59:47.823Z,101312.06
2023-05-22T18:02:15.738Z,101308.09
2023-05-22T18:04:43.619Z,101306.16
2023-05-22T18:07:11.397Z,101317.72
2023-05-22T18:09:39.217Z,101312.53
2023-05-22T18:12:10.906Z,101316.22
2023-05-22T18:14:42.020Z,101318.22
2023-05-22T18:17:09.770Z,101321.84
2023-05-22T18:19:37.525Z,101328.91
2023-05-22T18:22:05.596Z,101324.63
2023-05-22T18:24:36.424Z,101325.63
2023-05-22T18:27:04.588Z,101337.88
2023-05-22T18:29:32.533Z,101329.06
2023-05-22T18:32:01.721Z,101335.88
2023-05-22T18:34:29.884Z,101337.22
2023-05-22T18:36:59.621Z,101332.47
2023-05-22T18:39:27.367Z,101338.56
2023-05-22T18:41:55.107Z,101335.06
2023-05-22T18:44:23.258Z,101341.88
2023-05-22T18:46:51.062Z,101347.09
2023-05-22T18:49:20.617Z,101345.16
2023-05-22T18:51:48.423Z,101350.75
2023-05-22T18:54:16.185Z,101360.41
2023-05-22T18:56:43.928Z,101358.09
2023-05-22T18:59:11.681Z,101353.94
2023-05-22T19:01:39.431Z,101365.88
2023-05-22T19:04:08.175Z,101368.81
2023-05-22T19:06:37.767Z,101378.91
2023-05-22T19:09:05.666Z,101386.56
2023-05-22T19:11:33.512Z,101392.47
2023-05-22T19:14:01.378Z,101402.09
2023-05-22T19:16:29.210Z,101407.28
2023-05-22T19:18:57.050Z,101409.00
2023-05-22T19:21:26.340Z,101402.56
2023-05-22T19:23:55.464Z,101400.59
2023-05-22T19:26:23.346Z,101405.03
2023-05-22T19:28:51.428Z,101415.88
2023-05-22T19:31:19.288Z,101421.09
2023-05-22T19:33:47.041Z,101427.41
2023-05-22T19:36:14.803Z,101432.19
2023-05-22T19:38:42.501Z,101435.47
2023-05-22T19:41:11.640Z,101438.09
2023-05-22T19:43:39.383Z,101429.00
2023-05-22T19:46:08.877Z,101443.31
2023-05-22T19:48:36.872Z,101445.94
2023-05-22T19:51:05.311Z,101444.16
2023-05-22T19:53:34.107Z,101453.75
2023-05-22T19:56:02.911Z,101453.59
2023-05-22T19:58:32.223Z,101460.13
2023-05-22T20:00:59.968Z,101462.91
2023-05-22T20:03:27.812Z,101465.69
2023-05-22T20:05:55.669Z,101472.06
2023-05-22T20:08:25.435Z,101476.31
2023-05-22T20:10:53.487Z,101480.81
2023-05-22T20:13:21.301Z,101480.69
2023-05-22T20:15:51.316Z,101494.41
2023-05-22T20:18:20.740Z,101497.72
2023-05-22T20:20:48.494Z,101497.56
2023-05-22T20:23:16.397Z,101496.63
2023-05-22T20:25:44.149Z,101500.06
2023-05-22T20:28:11.850Z,101510.25
2023-05-22T20:30:39.589Z,101519.69
2023-05-22T20:33:08.956Z,101526.28
2023-05-22T20:35:37.174Z,101535.38
2023-05-22T20:38:08.585Z,101554.19
2023-05-22T20:40:37.722Z,101548.09
2023-05-22T20:43:05.452Z,101557.84
2023-05-22T20:45:34.328Z,101558.91
2023-05-22T20:48:02.253Z,101565.41
2023-05-22T20:50:32.736Z,101569.69
2023-05-22T20:53:00.712Z,101566.38
2023-05-22T20:55:28.439Z,101564.44
2023-05-22T20:57:56.761Z,101569.41
2023-05-22T21:00:24.507Z,101570.16
2023-05-22T21:02:52.470Z,101579.91
2023-05-22T21:05:20.295Z,101575.56
2023-05-22T21:07:49.692Z,101578.88
2023-05-22T21:10:17.597Z,101585.00
2023-05-22T21:12:46.154Z,101579.78
2023-05-22T21:15:13.963Z,101590.84
2023-05-22T21:17:41.749Z,101586.28
2023-05-22T21:20:10.404Z,101589.31
2023-05-22T21:22:38.182Z,101585.97
2023-05-22T21:25:08.711Z,101586.28
2023-05-22T21:27:36.498Z,101582.59
2023-05-22T21:30:04.616Z,101592.72
2023-05-22T21:32:32.381Z,101594.66
2023-05-22T21:35:00.136Z,101599.09
2023-05-22T21:37:27.939Z,101595.97
2023-05-22T21:39:55.688Z,101598.19
2023-05-22T21:42:26.204Z,101603.34
2023-05-22T21:44:54.118Z,101596.59
2023-05-22T21:47:21.851Z,101605.06
2023-05-22T21:49:49.627Z,101605.38
2023-05-22T21:52:17.407Z,101619.75
2023-05-22T21:54:45.208Z,101619.06
2023-05-22T21:57:12.963Z,101626.56
2023-05-22T21:59:42.180Z,101626.34
2023-05-22T22:02:09.973Z,101622.59
2023-05-22T22:04:37.727Z,101622.59
2023-05-22T22:07:05.687Z,101611.97
2023-05-22T22:09:33.513Z,101612.50
2023-05-22T22:12:01.270Z,101609.03
2023-05-22T22:14:29.215Z,101613.69
2023-05-22T22:16:58.358Z,101610.97
2023-05-22T22:19:26.238Z,101609.78
2023-05-22T22:21:54.350Z,101602.06
2023-05-22T22:24:22.188Z,101608.31
2023-05-22T22:26:50.078Z,101605.09
2023-05-22T22:29:17.803Z,101616.34
2023-05-22T22:31:45.708Z,101611.66
2023-05-22T22:34:14.821Z,101617.06
2023-05-22T22:36:42.576Z,101618.88
2023-05-22T22:39:10.572Z,101618.28
2023-05-22T22:41:38.304Z,101622.22
2023-05-22T22:44:06.091Z,101624.28
2023-05-22T22:46:33.971Z,101627.16
2023-05-22T22:49:02.279Z,101632.25
2023-05-22T22:51:31.880Z,101632.56
2023-05-22T22:53:59.734Z,101630.16
2023-05-22T22:56:29.334Z,101626.84
2023-05-22T22:58:57.546Z,101627.84
2023-05-22T23:01:25.489Z,101634.91
2023-05-22T23:03:53.312Z,101639.69
2023-05-22T23:06:21.076Z,101645.25
2023-05-22T23:08:50.280Z,101640.97
2023-05-22T23:11:18.137Z,101634.16
2023-05-22T23:13:45.913Z,101640.94
2023-05-22T23:16:13.729Z,101635.84
2023-05-22T23:18:41.632Z,101636.50
2023-05-22T23:21:09.391Z,101635.44
2023-05-22T23:23:37.088Z,101638.53
2023-05-22T23:26:06.487Z,101634.84
2023-05-22T23:28:34.232Z,101635.59
2023-05-22T23:31:02.236Z,101639.88
2023-05-22T23:33:29.950Z,101644.03
2023-05-22T23:35:57.716Z,101641.63
2023-05-22T23:38:25.752Z,101642.84
2023-05-22T23:40:53.514Z,101639.19
2023-05-22T23:43:22.677Z,101645.13
2023-05-22T23:45:50.562Z,101643.72
2023-05-22T23:48:18.353Z,101635.97
2023-05-22T23:50:46.298Z,101631.94
2023-05-22T23:53:14.060Z,101636.34
2023-05-22T23:55:42.086Z,101646.63
2023-05-22T23:58:10.100Z,101643.03
